sensor_id;sensor_type;location;lat;lon;timestamp;temperature;humidity
68139;DHT22;54940;50.842;4.410;2022-11-15T00:00:53;11.70;99.90
68139;DHT22;54940;50.842;4.410;2022-11-15T00:03:21;11.70;99.90
68139;DHT22;54940;50.842;4.410;2022-11-15T00:05:47;11.70;99.90
68139;DHT22;54940;50.842;4.410;2022-11-15T00:08:13;11.80;99.90
68139;DHT22;54940;50.842;4.410;2022-11-15T00:10:39;11.80;99.90
68139;DHT22;54940;50.842;4.410;2022-11-15T00:13:10;11.90;99.90
68139;DHT22;54940;50.842;4.410;2022-11-15T00:15:38;11.90;99.90
68139;DHT22;54940;50.842;4.410;2022-11-15T00:18:04;11.90;99.90
68139;DHT22;54940;50.842;4.410;2022-11-15T00:20:33;12.00;99.90
68139;DHT22;54940;50.842;4.410;2022-11-15T00:22:59;11.90;99.90
68139;DHT22;54940;50.842;4.410;2022-11-15T00:25:24;11.80;99.90
68139;DHT22;54940;50.842;4.410;2022-11-15T00:27:50;11.70;99.90
68139;DHT22;54940;50.842;4.410;2022-11-15T00:30:17;11.70;99.90
68139;DHT22;54940;50.842;4.410;2022-11-15T00:32:42;11.80;99.90
68139;DHT22;54940;50.842;4.410;2022-11-15T00:35:08;11.80;99.90
68139;DHT22;54940;50.842;4.410;2022-11-15T00:37:34;11.90;99.90
68139;DHT22;54940;50.842;4.410;2022-11-15T00:39:59;11.80;99.90
68139;DHT22;54940;50.842;4.410;2022-11-15T00:42:25;11.80;99.90
68139;DHT22;54940;50.842;4.410;2022-11-15T00:44:50;11.80;99.90
68139;DHT22;54940;50.842;4.410;2022-11-15T00:47:16;11.70;99.90
68139;DHT22;54940;50.842;4.410;2022-11-15T00:49:42;11.90;99.90
68139;DHT22;54940;50.842;4.410;2022-11-15T00:52:07;11.90;99.90
68139;DHT22;54940;50.842;4.410;2022-11-15T00:54:33;11.90;99.90
68139;DHT22;54940;50.842;4.410;2022-11-15T00:56:58;11.90;99.90
68139;DHT22;54940;50.842;4.410;2022-11-15T00:59:24;12.00;99.90
68139;DHT22;54940;50.842;4.410;2022-11-15T01:01:49;12.00;99.90
68139;DHT22;54940;50.842;4.410;2022-11-15T01:04:15;12.00;99.90
68139;DHT22;54940;50.842;4.410;2022-11-15T01:06:41;12.00;99.90
68139;DHT22;54940;50.842;4.410;2022-11-15T01:09:06;12.00;99.90
68139;DHT22;54940;50.842;4.410;2022-11-15T01:11:32;12.00;99.90
68139;DHT22;54940;50.842;4.410;2022-11-15T01:13:58;11.90;99.90
68139;DHT22;54940;50.842;4.410;2022-11-15T01:16:23;12.00;99.90
68139;DHT22;54940;50.842;4.410;2022-11-15T01:18:50;12.10;99.90
68139;DHT22;54940;50.842;4.410;2022-11-15T01:21:18;12.00;99.90
68139;DHT22;54940;50.842;4.410;2022-11-15T01:23:44;12.00;99.90
68139;DHT22;54940;50.842;4.410;2022-11-15T01:26:12;12.10;99.90
68139;DHT22;54940;50.842;4.410;2022-11-15T01:28:39;12.10;99.90
68139;DHT22;54940;50.842;4.410;2022-11-15T01:31:15;12.00;99.90
68139;DHT22;54940;50.842;4.410;2022-11-15T01:33:41;12.00;99.90
68139;DHT22;54940;50.842;4.410;2022-11-15T01:36:13;12.00;99.90
68139;DHT22;54940;50.842;4.410;2022-11-15T01:38:39;12.00;99.90
68139;DHT22;54940;50.842;4.410;2022-11-15T01:41:05;12.00;99.90
68139;DHT22;54940;50.842;4.410;2022-11-15T01:43:33;12.00;99.90
68139;DHT22;54940;50.842;4.410;2022-11-15T01:46:06;12.00;99.90
68139;DHT22;54940;50.842;4.410;2022-11-15T01:48:33;12.10;99.90
68139;DHT22;54940;50.842;4.410;2022-11-15T01:51:02;12.10;99.90
68139;DHT22;54940;50.842;4.410;2022-11-15T01:53:32;12.00;99.90
68139;DHT22;54940;50.842;4.410;2022-11-15T01:55:58;12.00;99.90
68139;DHT22;54940;50.842;4.410;2022-11-15T01:58:27;12.00;99.90
68139;DHT22;54940;50.842;4.410;2022-11-15T02:00:53;12.00;99.90
68139;DHT22;54940;50.842;4.410;2022-11-15T02:03:20;12.00;99.90
68139;DHT22;54940;50.842;4.410;2022-11-15T02:05:48;12.00;99.90
68139;DHT22;54940;50.842;4.410;2022-11-15T02:08:14;12.00;99.90
68139;DHT22;54940;50.842;4.410;2022-11-15T02:10:46;12.10;99.90
68139;DHT22;54940;50.842;4.410;2022-11-15T02:13:13;12.00;99.90
68139;DHT22;54940;50.842;4.410;2022-11-15T02:15:58;11.90;99.90
68139;DHT22;54940;50.842;4.410;2022-11-15T02:21:36;12.00;99.90
68139;DHT22;54940;50.842;4.410;2022-11-15T02:32:19;12.00;99.90
68139;DHT22;54940;50.842;4.410;2022-11-15T02:35:01;12.00;99.90
68139;DHT22;54940;50.842;4.410;2022-11-15T02:43:11;11.90;99.90
68139;DHT22;54940;50.842;4.410;2022-11-15T02:46:10;11.90;99.90
68139;DHT22;54940;50.842;4.410;2022-11-15T02:48:38;12.00;99.90
68139;DHT22;54940;50.842;4.410;2022-11-15T02:51:04;12.00;99.90
68139;DHT22;54940;50.842;4.410;2022-11-15T02:53:31;12.00;99.90
68139;DHT22;54940;50.842;4.410;2022-11-15T02:55:56;12.00;99.90
68139;DHT22;54940;50.842;4.410;2022-11-15T02:58:48;12.00;99.90
68139;DHT22;54940;50.842;4.410;2022-11-15T03:06:45;11.90;99.90
68139;DHT22;54940;50.842;4.410;2022-11-15T03:11:55;11.90;99.90
68139;DHT22;54940;50.842;4.410;2022-11-15T03:14:25;11.90;99.90
68139;DHT22;54940;50.842;4.410;2022-11-15T03:19:34;11.90;99.90
68139;DHT22;54940;50.842;4.410;2022-11-15T03:22:02;11.90;99.90
68139;DHT22;54940;50.842;4.410;2022-11-15T03:24:30;11.80;99.90
68139;DHT22;54940;50.842;4.410;2022-11-15T03:26:56;11.80;99.90
68139;DHT22;54940;50.842;4.410;2022-11-15T03:29:22;11.80;99.90
68139;DHT22;54940;50.842;4.410;2022-11-15T03:31:51;11.80;99.90
68139;DHT22;54940;50.842;4.410;2022-11-15T03:36:44;11.80;99.90
68139;DHT22;54940;50.842;4.410;2022-11-15T03:39:10;11.90;99.90
68139;DHT22;54940;50.842;4.410;2022-11-15T03:41:39;11.90;99.90
68139;DHT22;54940;50.842;4.410;2022-11-15T03:46:43;11.80;99.90
68139;DHT22;54940;50.842;4.410;2022-11-15T03:49:11;11.70;99.90
68139;DHT22;54940;50.842;4.410;2022-11-15T03:51:39;11.70;99.90
68139;DHT22;54940;50.842;4.410;2022-11-15T03:54:05;11.80;99.90
68139;DHT22;54940;50.842;4.410;2022-11-15T03:56:30;11.70;99.90
68139;DHT22;54940;50.842;4.410;2022-11-15T03:58:56;11.70;99.90
68139;DHT22;54940;50.842;4.410;2022-11-15T04:01:21;11.60;99.90
68139;DHT22;54940;50.842;4.410;2022-11-15T04:03:47;11.60;99.90
68139;DHT22;54940;50.842;4.410;2022-11-15T04:06:12;11.60;99.90
68139;DHT22;54940;50.842;4.410;2022-11-15T04:08:38;11.70;99.90
68139;DHT22;54940;50.842;4.410;2022-11-15T04:11:03;11.60;99.90
68139;DHT22;54940;50.842;4.410;2022-11-15T04:13:29;11.70;99.90
68139;DHT22;54940;50.842;4.410;2022-11-15T04:15:54;11.60;99.90
68139;DHT22;54940;50.842;4.410;2022-11-15T04:18:20;11.50;99.90
68139;DHT22;54940;50.842;4.410;2022-11-15T04:20:45;11.50;99.90
68139;DHT22;54940;50.842;4.410;2022-11-15T04:23:30;11.50;99.90
68139;DHT22;54940;50.842;4.410;2022-11-15T04:26:31;11.50;99.90
68139;DHT22;54940;50.842;4.410;2022-11-15T04:28:56;11.50;99.90
68139;DHT22;54940;50.842;4.410;2022-11-15T04:31:40;11.50;99.90
68139;DHT22;54940;50.842;4.410;2022-11-15T04:34:06;11.60;99.90
68139;DHT22;54940;50.842;4.410;2022-11-15T04:36:31;11.60;99.90
68139;DHT22;54940;50.842;4.410;2022-11-15T04:39:15;11.50;99.90
68139;DHT22;54940;50.842;4.410;2022-11-15T04:41:41;11.50;99.90
68139;DHT22;54940;50.842;4.410;2022-11-15T04:44:06;11.40;99.90
68139;DHT22;54940;50.842;4.410;2022-11-15T04:46:32;11.50;99.90
68139;DHT22;54940;50.842;4.410;2022-11-15T04:48:57;11.50;99.90
68139;DHT22;54940;50.842;4.410;2022-11-15T04:51:23;11.40;99.90
68139;DHT22;54940;50.842;4.410;2022-11-15T04:53:48;11.30;99.90
68139;DHT22;54940;50.842;4.410;2022-11-15T04:56:14;11.30;99.90
68139;DHT22;54940;50.842;4.410;2022-11-15T04:58:39;11.30;99.90
68139;DHT22;54940;50.842;4.410;2022-11-15T05:01:09;11.20;99.90
68139;DHT22;54940;50.842;4.410;2022-11-15T05:03:34;11.10;99.90
68139;DHT22;54940;50.842;4.410;2022-11-15T05:06:18;11.10;99.90
68139;DHT22;54940;50.842;4.410;2022-11-15T05:08:44;11.10;99.90
68139;DHT22;54940;50.842;4.410;2022-11-15T05:11:09;11.10;99.90
68139;DHT22;54940;50.842;4.410;2022-11-15T05:13:35;11.10;99.90
68139;DHT22;54940;50.842;4.410;2022-11-15T05:16:00;11.10;99.90
68139;DHT22;54940;50.842;4.410;2022-11-15T05:18:26;11.20;99.90
68139;DHT22;54940;50.842;4.410;2022-11-15T05:20:51;11.10;99.90
68139;DHT22;54940;50.842;4.410;2022-11-15T05:23:17;11.00;99.90
68139;DHT22;54940;50.842;4.410;2022-11-15T05:25:42;10.90;99.90
68139;DHT22;54940;50.842;4.410;2022-11-15T05:28:08;10.80;99.90
68139;DHT22;54940;50.842;4.410;2022-11-15T05:30:33;10.80;99.90
68139;DHT22;54940;50.842;4.410;2022-11-15T05:32:59;10.80;99.90
68139;DHT22;54940;50.842;4.410;2022-11-15T05:35:35;10.80;99.90
68139;DHT22;54940;50.842;4.410;2022-11-15T05:38:03;10.80;99.90
68139;DHT22;54940;50.842;4.410;2022-11-15T05:40:29;10.70;99.90
68139;DHT22;54940;50.842;4.410;2022-11-15T05:42:55;10.60;99.90
68139;DHT22;54940;50.842;4.410;2022-11-15T05:45:21;10.60;99.90
68139;DHT22;54940;50.842;4.410;2022-11-15T05:47:46;10.60;99.90
68139;DHT22;54940;50.842;4.410;2022-11-15T05:50:13;10.60;99.90
68139;DHT22;54940;50.842;4.410;2022-11-15T05:52:39;10.60;99.90
68139;DHT22;54940;50.842;4.410;2022-11-15T05:55:05;10.60;99.90
68139;DHT22;54940;50.842;4.410;2022-11-15T05:57:32;10.60;99.90
68139;DHT22;54940;50.842;4.410;2022-11-15T05:59:58;10.60;99.90
68139;DHT22;54940;50.842;4.410;2022-11-15T06:02:23;10.60;99.90
68139;DHT22;54940;50.842;4.410;2022-11-15T06:04:49;10.50;99.90
68139;DHT22;54940;50.842;4.410;2022-11-15T06:07:14;10.60;99.90
68139;DHT22;54940;50.842;4.410;2022-11-15T06:09:40;10.60;99.90
68139;DHT22;54940;50.842;4.410;2022-11-15T06:12:05;10.50;99.90
68139;DHT22;54940;50.842;4.410;2022-11-15T06:14:31;10.50;99.90
68139;DHT22;54940;50.842;4.410;2022-11-15T06:16:56;10.50;99.90
68139;DHT22;54940;50.842;4.410;2022-11-15T06:19:22;10.40;99.90
68139;DHT22;54940;50.842;4.410;2022-11-15T06:21:47;10.40;99.90
68139;DHT22;54940;50.842;4.410;2022-11-15T06:24:13;10.30;99.90
68139;DHT22;54940;50.842;4.410;2022-11-15T06:26:38;10.30;99.90
68139;DHT22;54940;50.842;4.410;2022-11-15T06:29:04;10.20;99.90
68139;DHT22;54940;50.842;4.410;2022-11-15T06:31:29;10.30;99.90
68139;DHT22;54940;50.842;4.410;2022-11-15T06:33:55;10.20;99.90
68139;DHT22;54940;50.842;4.410;2022-11-15T06:36:20;10.30;99.90
68139;DHT22;54940;50.842;4.410;2022-11-15T06:38:46;10.30;99.90
68139;DHT22;54940;50.842;4.410;2022-11-15T06:41:12;10.30;99.90
68139;DHT22;54940;50.842;4.410;2022-11-15T06:43:38;10.30;99.90
68139;DHT22;54940;50.842;4.410;2022-11-15T06:46:04;10.30;99.90
68139;DHT22;54940;50.842;4.410;2022-11-15T06:48:30;10.20;99.90
68139;DHT22;54940;50.842;4.410;2022-11-15T06:50:57;10.20;99.90
68139;DHT22;54940;50.842;4.410;2022-11-15T06:53:23;10.20;99.90
68139;DHT22;54940;50.842;4.410;2022-11-15T06:55:49;10.10;99.90
68139;DHT22;54940;50.842;4.410;2022-11-15T06:58:14;10.00;99.90
68139;DHT22;54940;50.842;4.410;2022-11-15T07:00:40;10.00;99.90
68139;DHT22;54940;50.842;4.410;2022-11-15T07:03:06;10.00;99.90
68139;DHT22;54940;50.842;4.410;2022-11-15T07:05:31;10.00;99.90
68139;DHT22;54940;50.842;4.410;2022-11-15T07:07:57;10.00;99.90
68139;DHT22;54940;50.842;4.410;2022-11-15T07:10:23;10.10;99.90
68139;DHT22;54940;50.842;4.410;2022-11-15T07:12:52;10.00;99.90
68139;DHT22;54940;50.842;4.410;2022-11-15T07:15:20;10.00;99.90
68139;DHT22;54940;50.842;4.410;2022-11-15T07:17:46;10.00;99.90
68139;DHT22;54940;50.842;4.410;2022-11-15T07:20:11;9.90;99.90
68139;DHT22;54940;50.842;4.410;2022-11-15T07:22:38;9.80;99.90
68139;DHT22;54940;50.842;4.410;2022-11-15T07:25:04;9.80;99.90
68139;DHT22;54940;50.842;4.410;2022-11-15T07:27:30;9.80;99.90
68139;DHT22;54940;50.842;4.410;2022-11-15T07:29:55;9.80;99.90
68139;DHT22;54940;50.842;4.410;2022-11-15T07:32:21;9.80;99.90
68139;DHT22;54940;50.842;4.410;2022-11-15T07:34:46;9.80;99.90
68139;DHT22;54940;50.842;4.410;2022-11-15T07:37:12;9.90;99.90
68139;DHT22;54940;50.842;4.410;2022-11-15T07:39:37;9.90;99.90
68139;DHT22;54940;50.842;4.410;2022-11-15T07:42:03;9.80;99.90
68139;DHT22;54940;50.842;4.410;2022-11-15T07:44:48;9.80;99.90
68139;DHT22;54940;50.842;4.410;2022-11-15T07:47:13;9.90;99.90
68139;DHT22;54940;50.842;4.410;2022-11-15T07:49:39;9.90;99.90
68139;DHT22;54940;50.842;4.410;2022-11-15T07:52:04;9.90;99.90
68139;DHT22;54940;50.842;4.410;2022-11-15T07:54:30;9.90;99.90
68139;DHT22;54940;50.842;4.410;2022-11-15T07:56:55;9.90;99.90
68139;DHT22;54940;50.842;4.410;2022-11-15T07:59:21;9.90;99.90
68139;DHT22;54940;50.842;4.410;2022-11-15T08:01:46;9.90;99.90
68139;DHT22;54940;50.842;4.410;2022-11-15T08:04:12;9.90;99.90
68139;DHT22;54940;50.842;4.410;2022-11-15T08:06:37;9.90;99.90
68139;DHT22;54940;50.842;4.410;2022-11-15T08:09:03;9.90;99.90
68139;DHT22;54940;50.842;4.410;2022-11-15T08:11:29;9.80;99.90
68139;DHT22;54940;50.842;4.410;2022-11-15T08:13:54;9.90;99.90
68139;DHT22;54940;50.842;4.410;2022-11-15T08:16:20;9.90;99.90
68139;DHT22;54940;50.842;4.410;2022-11-15T08:18:45;9.80;99.90
68139;DHT22;54940;50.842;4.410;2022-11-15T08:21:12;9.80;99.90
68139;DHT22;54940;50.842;4.410;2022-11-15T08:23:38;9.90;99.90
68139;DHT22;54940;50.842;4.410;2022-11-15T08:26:04;9.90;99.90
68139;DHT22;54940;50.842;4.410;2022-11-15T08:28:30;10.00;99.90
68139;DHT22;54940;50.842;4.410;2022-11-15T08:30:56;10.00;99.90
68139;DHT22;54940;50.842;4.410;2022-11-15T08:33:21;10.00;99.90
68139;DHT22;54940;50.842;4.410;2022-11-15T08:35:47;10.00;99.90
68139;DHT22;54940;50.842;4.410;2022-11-15T08:38:13;10.00;99.90
68139;DHT22;54940;50.842;4.410;2022-11-15T08:40:39;10.00;99.90
68139;DHT22;54940;50.842;4.410;2022-11-15T08:43:04;10.00;99.90
68139;DHT22;54940;50.842;4.410;2022-11-15T08:45:30;10.00;99.90
68139;DHT22;54940;50.842;4.410;2022-11-15T08:47:56;10.00;99.90
68139;DHT22;54940;50.842;4.410;2022-11-15T08:50:21;10.10;99.90
68139;DHT22;54940;50.842;4.410;2022-11-15T08:52:47;10.00;99.90
68139;DHT22;54940;50.842;4.410;2022-11-15T08:55:15;10.10;99.90
68139;DHT22;54940;50.842;4.410;2022-11-15T08:57:40;10.10;99.90
68139;DHT22;54940;50.842;4.410;2022-11-15T09:00:06;10.20;99.90
68139;DHT22;54940;50.842;4.410;2022-11-15T09:02:32;10.20;99.90
68139;DHT22;54940;50.842;4.410;2022-11-15T09:04:57;10.10;99.90
68139;DHT22;54940;50.842;4.410;2022-11-15T09:07:23;10.10;99.90
68139;DHT22;54940;50.842;4.410;2022-11-15T09:09:49;10.10;99.90
68139;DHT22;54940;50.842;4.410;2022-11-15T09:12:14;10.20;99.90
68139;DHT22;54940;50.842;4.410;2022-11-15T09:14:40;10.20;99.90
68139;DHT22;54940;50.842;4.410;2022-11-15T09:17:08;10.20;99.90
68139;DHT22;54940;50.842;4.410;2022-11-15T09:19:34;10.20;99.90
68139;DHT22;54940;50.842;4.410;2022-11-15T09:21:59;10.30;99.90
68139;DHT22;54940;50.842;4.410;2022-11-15T09:24:25;10.30;99.90
68139;DHT22;54940;50.842;4.410;2022-11-15T09:26:50;10.20;99.90
68139;DHT22;54940;50.842;4.410;2022-11-15T09:29:16;10.20;99.90
68139;DHT22;54940;50.842;4.410;2022-11-15T09:31:42;10.20;99.90
68139;DHT22;54940;50.842;4.410;2022-11-15T09:34:08;10.20;99.90
68139;DHT22;54940;50.842;4.410;2022-11-15T09:36:33;10.30;99.90
68139;DHT22;54940;50.842;4.410;2022-11-15T09:38:59;10.20;99.90
68139;DHT22;54940;50.842;4.410;2022-11-15T09:47:01;10.40;99.90
68139;DHT22;54940;50.842;4.410;2022-11-15T09:49:28;10.40;99.90
68139;DHT22;54940;50.842;4.410;2022-11-15T09:51:54;10.40;99.90
68139;DHT22;54940;50.842;4.410;2022-11-15T09:54:26;10.40;99.90
68139;DHT22;54940;50.842;4.410;2022-11-15T09:56:52;10.50;99.90
68139;DHT22;54940;50.842;4.410;2022-11-15T10:04:22;10.60;99.90
68139;DHT22;54940;50.842;4.410;2022-11-15T10:06:58;10.60;99.90
68139;DHT22;54940;50.842;4.410;2022-11-15T10:09:33;10.60;99.90
68139;DHT22;54940;50.842;4.410;2022-11-15T10:12:01;10.50;99.90
68139;DHT22;54940;50.842;4.410;2022-11-15T10:14:27;10.60;99.90
68139;DHT22;54940;50.842;4.410;2022-11-15T10:22:26;10.70;99.90
68139;DHT22;54940;50.842;4.410;2022-11-15T10:24:59;10.60;99.90
68139;DHT22;54940;50.842;4.410;2022-11-15T10:27:25;10.70;99.90
68139;DHT22;54940;50.842;4.410;2022-11-15T10:29:51;10.80;99.90
68139;DHT22;54940;50.842;4.410;2022-11-15T10:32:17;10.80;99.90
68139;DHT22;54940;50.842;4.410;2022-11-15T10:34:43;10.90;99.90
68139;DHT22;54940;50.842;4.410;2022-11-15T10:37:09;10.90;99.90
68139;DHT22;54940;50.842;4.410;2022-11-15T10:39:35;11.00;99.90
68139;DHT22;54940;50.842;4.410;2022-11-15T10:42:17;11.00;99.90
68139;DHT22;54940;50.842;4.410;2022-11-15T10:44:43;11.10;99.90
68139;DHT22;54940;50.842;4.410;2022-11-15T10:50:01;11.20;99.90
68139;DHT22;54940;50.842;4.410;2022-11-15T10:52:26;11.20;99.90
68139;DHT22;54940;50.842;4.410;2022-11-15T10:57:28;11.30;99.90
68139;DHT22;54940;50.842;4.410;2022-11-15T10:59:56;11.40;99.90
68139;DHT22;54940;50.842;4.410;2022-11-15T11:02:29;11.50;99.90
68139;DHT22;54940;50.842;4.410;2022-11-15T11:04:56;11.50;99.90
68139;DHT22;54940;50.842;4.410;2022-11-15T11:07:23;11.60;99.90
68139;DHT22;54940;50.842;4.410;2022-11-15T11:09:56;11.60;99.90
68139;DHT22;54940;50.842;4.410;2022-11-15T11:12:26;11.70;99.90
68139;DHT22;54940;50.842;4.410;2022-11-15T11:14:52;11.70;99.90
68139;DHT22;54940;50.842;4.410;2022-11-15T11:22:22;11.80;99.90
68139;DHT22;54940;50.842;4.410;2022-11-15T11:24:59;11.80;99.90
68139;DHT22;54940;50.842;4.410;2022-11-15T11:27:34;11.80;99.90
68139;DHT22;54940;50.842;4.410;2022-11-15T11:30:03;12.00;99.90
68139;DHT22;54940;50.842;4.410;2022-11-15T11:37:54;12.10;99.90
68139;DHT22;54940;50.842;4.410;2022-11-15T11:45:15;12.20;99.90
68139;DHT22;54940;50.842;4.410;2022-11-15T11:47:51;12.40;99.90
68139;DHT22;54940;50.842;4.410;2022-11-15T11:50:24;12.40;99.90
68139;DHT22;54940;50.842;4.410;2022-11-15T11:55:49;12.30;99.90
68139;DHT22;54940;50.842;4.410;2022-11-15T12:00:55;12.30;99.90
68139;DHT22;54940;50.842;4.410;2022-11-15T12:05:54;12.40;99.90
68139;DHT22;54940;50.842;4.410;2022-11-15T12:11:12;12.40;99.90
68139;DHT22;54940;50.842;4.410;2022-11-15T12:13:38;12.40;99.90
68139;DHT22;54940;50.842;4.410;2022-11-15T12:18:58;12.40;99.90
68139;DHT22;54940;50.842;4.410;2022-11-15T12:21:29;12.40;99.90
68139;DHT22;54940;50.842;4.410;2022-11-15T12:24:02;12.40;99.90
68139;DHT22;54940;50.842;4.410;2022-11-15T12:26:32;12.50;99.90
68139;DHT22;54940;50.842;4.410;2022-11-15T12:28:59;12.50;99.90
68139;DHT22;54940;50.842;4.410;2022-11-15T12:33:56;12.60;99.90
68139;DHT22;54940;50.842;4.410;2022-11-15T12:41:14;12.50;99.90
68139;DHT22;54940;50.842;4.410;2022-11-15T12:46:08;12.50;99.90
68139;DHT22;54940;50.842;4.410;2022-11-15T12:51:03;12.50;99.90
68139;DHT22;54940;50.842;4.410;2022-11-15T12:53:32;12.50;99.90
68139;DHT22;54940;50.842;4.410;2022-11-15T12:58:40;12.70;99.90
68139;DHT22;54940;50.842;4.410;2022-11-15T13:01:07;12.80;99.90
68139;DHT22;54940;50.842;4.410;2022-11-15T13:03:33;12.90;99.90
68139;DHT22;54940;50.842;4.410;2022-11-15T13:05:59;12.80;99.90
68139;DHT22;54940;50.842;4.410;2022-11-15T13:08:35;12.90;99.90
68139;DHT22;54940;50.842;4.410;2022-11-15T13:11:41;12.90;99.90
68139;DHT22;54940;50.842;4.410;2022-11-15T13:13:46;13.00;99.90
68139;DHT22;54940;50.842;4.410;2022-11-15T13:16:14;13.10;99.90
68139;DHT22;54940;50.842;4.410;2022-11-15T13:18:42;13.10;99.90
68139;DHT22;54940;50.842;4.410;2022-11-15T13:21:19;13.10;99.90
68139;DHT22;54940;50.842;4.410;2022-11-15T13:24:03;13.00;99.90
68139;DHT22;54940;50.842;4.410;2022-11-15T13:26:29;13.00;99.90
68139;DHT22;54940;50.842;4.410;2022-11-15T13:28:56;13.00;99.90
68139;DHT22;54940;50.842;4.410;2022-11-15T13:31:55;13.00;99.90
68139;DHT22;54940;50.842;4.410;2022-11-15T13:34:25;12.90;99.90
68139;DHT22;54940;50.842;4.410;2022-11-15T13:36:51;12.80;99.90
68139;DHT22;54940;50.842;4.410;2022-11-15T13:39:25;12.90;99.90
68139;DHT22;54940;50.842;4.410;2022-11-15T13:41:51;12.90;99.90
68139;DHT22;54940;50.842;4.410;2022-11-15T13:44:24;12.90;99.90
68139;DHT22;54940;50.842;4.410;2022-11-15T13:47:32;12.90;99.90
68139;DHT22;54940;50.842;4.410;2022-11-15T13:49:38;12.90;99.90
68139;DHT22;54940;50.842;4.410;2022-11-15T13:52:05;12.90;99.90
68139;DHT22;54940;50.842;4.410;2022-11-15T13:54:42;12.90;99.90
68139;DHT22;54940;50.842;4.410;2022-11-15T13:59:35;12.90;99.90
68139;DHT22;54940;50.842;4.410;2022-11-15T14:02:46;13.00;99.90
68139;DHT22;54940;50.842;4.410;2022-11-15T14:04:49;13.00;99.90
68139;DHT22;54940;50.842;4.410;2022-11-15T14:07:17;12.90;99.90
68139;DHT22;54940;50.842;4.410;2022-11-15T14:09:43;12.80;99.90
68139;DHT22;54940;50.842;4.410;2022-11-15T14:12:21;12.90;99.90
68139;DHT22;54940;50.842;4.410;2022-11-15T14:14:47;12.90;99.90
68139;DHT22;54940;50.842;4.410;2022-11-15T14:17:19;12.90;99.90
68139;DHT22;54940;50.842;4.410;2022-11-15T14:19:46;12.90;99.90
68139;DHT22;54940;50.842;4.410;2022-11-15T14:24:37;12.90;99.90
68139;DHT22;54940;50.842;4.410;2022-11-15T14:30:03;12.80;99.90
68139;DHT22;54940;50.842;4.410;2022-11-15T14:32:38;12.90;99.90
68139;DHT22;54940;50.842;4.410;2022-11-15T14:35:08;12.80;99.90
68139;DHT22;54940;50.842;4.410;2022-11-15T14:37:35;12.70;99.90
68139;DHT22;54940;50.842;4.410;2022-11-15T14:40:01;12.60;99.90
68139;DHT22;54940;50.842;4.410;2022-11-15T14:42:27;12.60;99.90
68139;DHT22;54940;50.842;4.410;2022-11-15T14:44:53;12.60;99.90
68139;DHT22;54940;50.842;4.410;2022-11-15T14:47:18;12.50;99.90
68139;DHT22;54940;50.842;4.410;2022-11-15T14:49:44;12.60;99.90
68139;DHT22;54940;50.842;4.410;2022-11-15T14:52:28;12.60;99.90
68139;DHT22;54940;50.842;4.410;2022-11-15T14:54:55;12.60;99.90
68139;DHT22;54940;50.842;4.410;2022-11-15T14:57:21;12.60;99.90
68139;DHT22;54940;50.842;4.410;2022-11-15T14:59:47;12.50;99.90
68139;DHT22;54940;50.842;4.410;2022-11-15T15:02:19;12.60;99.90
68139;DHT22;54940;50.842;4.410;2022-11-15T15:04:46;12.50;99.90
68139;DHT22;54940;50.842;4.410;2022-11-15T15:07:11;12.50;99.90
68139;DHT22;54940;50.842;4.410;2022-11-15T15:09:37;12.50;99.90
68139;DHT22;54940;50.842;4.410;2022-11-15T15:12:03;12.50;99.90
68139;DHT22;54940;50.842;4.410;2022-11-15T15:14:29;12.60;99.90
68139;DHT22;54940;50.842;4.410;2022-11-15T15:16:54;12.60;99.90
68139;DHT22;54940;50.842;4.410;2022-11-15T15:19:20;12.50;99.90
68139;DHT22;54940;50.842;4.410;2022-11-15T15:21:45;12.40;99.90
68139;DHT22;54940;50.842;4.410;2022-11-15T15:24:13;12.40;99.90
68139;DHT22;54940;50.842;4.410;2022-11-15T15:26:40;12.40;99.90
68139;DHT22;54940;50.842;4.410;2022-11-15T15:29:05;12.40;99.90
68139;DHT22;54940;50.842;4.410;2022-11-15T15:31:31;12.40;99.90
68139;DHT22;54940;50.842;4.410;2022-11-15T15:33:58;12.40;99.90
68139;DHT22;54940;50.842;4.410;2022-11-15T15:36:23;12.40;99.90
68139;DHT22;54940;50.842;4.410;2022-11-15T15:38:49;12.40;99.90
68139;DHT22;54940;50.842;4.410;2022-11-15T15:41:15;12.40;99.90
68139;DHT22;54940;50.842;4.410;2022-11-15T15:43:41;12.30;99.90
68139;DHT22;54940;50.842;4.410;2022-11-15T15:46:11;12.30;99.90
68139;DHT22;54940;50.842;4.410;2022-11-15T15:48:37;12.30;99.90
68139;DHT22;54940;50.842;4.410;2022-11-15T15:51:05;12.30;99.90
68139;DHT22;54940;50.842;4.410;2022-11-15T15:53:30;12.30;99.90
68139;DHT22;54940;50.842;4.410;2022-11-15T15:55:56;12.20;99.90
68139;DHT22;54940;50.842;4.410;2022-11-15T15:58:22;12.20;99.90
68139;DHT22;54940;50.842;4.410;2022-11-15T16:00:47;12.30;99.90
68139;DHT22;54940;50.842;4.410;2022-11-15T16:03:13;12.20;99.90
68139;DHT22;54940;50.842;4.410;2022-11-15T16:05:38;12.30;99.90
68139;DHT22;54940;50.842;4.410;2022-11-15T16:08:04;12.20;99.90
68139;DHT22;54940;50.842;4.410;2022-11-15T16:10:32;12.20;99.90
68139;DHT22;54940;50.842;4.410;2022-11-15T16:13:02;12.20;99.90
68139;DHT22;54940;50.842;4.410;2022-11-15T16:15:29;12.20;99.90
68139;DHT22;54940;50.842;4.410;2022-11-15T16:17:56;12.20;99.90
68139;DHT22;54940;50.842;4.410;2022-11-15T16:22:56;12.20;99.90
68139;DHT22;54940;50.842;4.410;2022-11-15T16:25:22;12.10;99.90
68139;DHT22;54940;50.842;4.410;2022-11-15T16:27:48;12.20;99.90
68139;DHT22;54940;50.842;4.410;2022-11-15T16:30:14;12.20;99.90
68139;DHT22;54940;50.842;4.410;2022-11-15T16:32:40;12.10;99.90
68139;DHT22;54940;50.842;4.410;2022-11-15T16:35:05;12.10;99.90
68139;DHT22;54940;50.842;4.410;2022-11-15T16:37:31;12.10;99.90
68139;DHT22;54940;50.842;4.410;2022-11-15T16:39:56;12.00;99.90
68139;DHT22;54940;50.842;4.410;2022-11-15T16:42:22;12.10;99.90
68139;DHT22;54940;50.842;4.410;2022-11-15T16:44:47;12.20;99.90
68139;DHT22;54940;50.842;4.410;2022-11-15T16:47:17;12.20;99.90
68139;DHT22;54940;50.842;4.410;2022-11-15T16:49:47;12.20;99.90
68139;DHT22;54940;50.842;4.410;2022-11-15T16:52:12;12.20;99.90
68139;DHT22;54940;50.842;4.410;2022-11-15T16:54:38;12.10;99.90
68139;DHT22;54940;50.842;4.410;2022-11-15T16:57:03;12.00;99.90
68139;DHT22;54940;50.842;4.410;2022-11-15T16:59:29;12.10;99.90
68139;DHT22;54940;50.842;4.410;2022-11-15T17:01:57;12.10;99.90
68139;DHT22;54940;50.842;4.410;2022-11-15T17:04:22;12.10;99.90
68139;DHT22;54940;50.842;4.410;2022-11-15T17:06:48;12.10;99.90
68139;DHT22;54940;50.842;4.410;2022-11-15T17:09:14;12.00;99.90
68139;DHT22;54940;50.842;4.410;2022-11-15T17:11:41;12.00;99.90
68139;DHT22;54940;50.842;4.410;2022-11-15T17:14:07;12.10;99.90
68139;DHT22;54940;50.842;4.410;2022-11-15T17:16:32;12.20;99.90
68139;DHT22;54940;50.842;4.410;2022-11-15T17:19:00;12.30;99.90
68139;DHT22;54940;50.842;4.410;2022-11-15T17:21:25;12.20;99.90
68139;DHT22;54940;50.842;4.410;2022-11-15T17:23:52;12.20;99.90